Time;durP1;ratioP1;P1;durP2;ratioP2;P2;SDS_P1;SDS_P2;PMS_P1;PMS_P2;Temp;Humidity;BMP_temperature;BMP_pressure;BME280_temperature;BME280_humidity;BME280_pressure;Samples;Min_cycle;Max_cycle;Signal;HPM_P1;HPM_P2
2023/06/01 00:03:04;;;;;;;6.68;1.20;;;;;;;;;;6334001;28;20293;-70
2023/06/01 00:06:13;;;;;;;3.63;1.30;;;;;;;;;;6334642;28;20314;-70
2023/06/01 00:09:18;;;;;;;4.53;1.33;;;;;;;;;;6333837;28;20578;-70
2023/06/01 00:12:23;;;;;;;2.08;1.48;;;;;;;;;;6337391;28;20305;-70
2023/06/01 00:15:28;;;;;;;4.20;1.30;;;;;;;;;;6333655;28;20605;-70
2023/06/01 00:18:33;;;;;;;10.88;1.60;;;;;;;;;;6333189;28;20563;-70
2023/06/01 00:21:41;;;;;;;3.30;1.15;;;;;;;;;;6334112;28;20285;-70
2023/06/01 00:24:46;;;;;;;0.85;0.85;;;;;;;;;;6333868;28;20286;-70
2023/06/01 00:27:51;;;;;;;0.80;0.80;;;;;;;;;;6334078;28;20301;-70
2023/06/01 00:30:56;;;;;;;3.33;1.00;;;;;;;;;;6333307;28;20293;-70
2023/06/01 00:34:02;;;;;;;0.80;0.80;;;;;;;;;;6333592;28;20301;-70
2023/06/01 00:37:10;;;;;;;1.65;0.90;;;;;;;;;;6331837;28;20585;-70
2023/06/01 00:40:15;;;;;;;1.42;0.93;;;;;;;;;;6331824;28;20289;-70
2023/06/01 00:43:21;;;;;;;0.95;0.90;;;;;;;;;;6332983;28;20585;-71
2023/06/01 00:46:27;;;;;;;3.65;1.08;;;;;;;;;;6331852;28;20294;-69
2023/06/01 00:49:32;;;;;;;1.25;1.15;;;;;;;;;;6330734;28;20297;-71
2023/06/01 00:52:39;;;;;;;2.05;1.48;;;;;;;;;;6333260;28;20265;-71
2023/06/01 00:55:44;;;;;;;3.78;2.00;;;;;;;;;;6330288;28;20297;-69
2023/06/01 00:58:50;;;;;;;3.67;1.80;;;;;;;;;;6331457;28;20293;-69
2023/06/01 01:01:56;;;;;;;1.70;1.30;;;;;;;;;;6345697;22;22147;-79
2023/06/01 01:05:02;;;;;;;1.10;0.90;;;;;;;;;;6354781;28;20316;-78
2023/06/01 01:08:15;;;;;;;1.00;1.00;;;;;;;;;;6357347;28;20297;-78
2023/06/01 01:11:25;;;;;;;0.90;0.90;;;;;;;;;;6339590;28;20297;-78
2023/06/01 01:14:34;;;;;;;1.10;0.98;;;;;;;;;;6339667;28;20289;-78
2023/06/01 01:17:44;;;;;;;3.90;1.30;;;;;;;;;;6358504;28;20308;-78
2023/06/01 01:20:52;;;;;;;22.05;2.22;;;;;;;;;;6339079;28;20581;-77
2023/06/01 01:24:23;;;;;;;7.95;2.00;;;;;;;;;;6340792;28;20293;-77
2023/06/01 01:27:40;;;;;;;6.45;1.70;;;;;;;;;;6357496;28;20289;-77
2023/06/01 01:30:48;;;;;;;1.75;0.98;;;;;;;;;;6339464;28;20343;-78
2023/06/01 01:33:55;;;;;;;1.60;0.95;;;;;;;;;;6357631;28;20293;-78
2023/06/01 01:37:01;;;;;;;1.00;1.00;;;;;;;;;;6356288;28;20308;-77
2023/06/01 01:40:08;;;;;;;1.65;0.98;;;;;;;;;;6339612;28;20341;-78
2023/06/01 01:43:14;;;;;;;2.30;1.10;;;;;;;;;;6357845;28;20392;-77
2023/06/01 01:46:25;;;;;;;2.17;0.88;;;;;;;;;;6339823;28;20300;-77
2023/06/01 01:49:36;;;;;;;1.52;0.98;;;;;;;;;;6356589;28;20285;-77
2023/06/01 01:52:44;;;;;;;0.70;0.70;;;;;;;;;;6339953;28;20265;-77
2023/06/01 01:55:51;;;;;;;0.80;0.80;;;;;;;;;;6339772;28;20316;-78
2023/06/01 01:58:56;;;;;;;1.33;0.80;;;;;;;;;;6357570;28;20296;-78
2023/06/01 02:02:03;;;;;;;1.05;1.05;;;;;;;;;;6339548;28;20289;-78
2023/06/01 02:05:09;;;;;;;1.38;0.80;;;;;;;;;;6358025;28;20292;-79
2023/06/01 02:08:15;;;;;;;3.00;0.93;;;;;;;;;;6344156;28;20297;-77
2023/06/01 02:11:21;;;;;;;0.80;0.80;;;;;;;;;;6360366;28;20293;-78
2023/06/01 02:14:26;;;;;;;4.28;1.08;;;;;;;;;;6361748;28;20289;-77
2023/06/01 02:17:33;;;;;;;1.45;1.20;;;;;;;;;;6344383;28;20573;-77
2023/06/01 02:20:38;;;;;;;1.00;1.00;;;;;;;;;;6343794;28;20305;-78
2023/06/01 02:23:44;;;;;;;0.80;0.80;;;;;;;;;;6360548;28;20398;-77
2023/06/01 02:26:52;;;;;;;1.17;0.80;;;;;;;;;;6361749;28;20601;-76
2023/06/01 02:29:57;;;;;;;0.80;0.80;;;;;;;;;;6361235;28;20296;-77
2023/06/01 02:33:04;;;;;;;1.58;0.90;;;;;;;;;;6362043;28;20284;-75
2023/06/01 02:36:12;;;;;;;2.15;1.00;;;;;;;;;;6343998;28;20289;-77
2023/06/01 02:39:17;;;;;;;0.80;0.80;;;;;;;;;;6343409;28;20297;-77
2023/06/01 02:42:22;;;;;;;1.65;0.77;;;;;;;;;;6343367;28;20313;-77
2023/06/01 02:45:28;;;;;;;1.85;0.65;;;;;;;;;;6343312;28;20297;-77
2023/06/01 02:48:34;;;;;;;2.60;0.90;;;;;;;;;;6361372;28;20300;-77
2023/06/01 02:51:40;;;;;;;0.90;0.90;;;;;;;;;;6343653;28;20569;-77
2023/06/01 02:54:52;;;;;;;0.70;0.70;;;;;;;;;;6359862;28;20289;-77
2023/06/01 02:58:21;;;;;;;0.88;0.88;;;;;;;;;;6352339;28;20533;-78
2023/06/01 03:01:40;;;;;;;1.20;0.80;;;;;;;;;;6341123;28;20293;-77
2023/06/01 03:04:48;;;;;;;3.63;0.80;;;;;;;;;;6325060;28;20297;-77
2023/06/01 03:07:53;;;;;;;0.90;0.90;;;;;;;;;;6337034;28;20361;-77
2023/06/01 03:11:03;;;;;;;0.68;0.68;;;;;;;;;;6342754;28;20589;-77
2023/06/01 03:14:14;;;;;;;1.60;0.85;;;;;;;;;;6346571;28;20328;-77
2023/06/01 03:17:20;;;;;;;0.80;0.80;;;;;;;;;;6341936;28;20480;-78
2023/06/01 03:20:26;;;;;;;1.00;1.00;;;;;;;;;;6324398;28;20289;-77
2023/06/01 03:23:32;;;;;;;0.68;0.68;;;;;;;;;;6334539;28;20441;-78
2023/06/01 03:26:37;;;;;;;0.68;0.68;;;;;;;;;;6317443;28;20301;-78
2023/06/01 03:29:42;;;;;;;0.60;0.60;;;;;;;;;;6317264;28;20292;-78
2023/06/01 03:32:48;;;;;;;0.70;0.70;;;;;;;;;;6316703;28;20313;-78
2023/06/01 03:35:56;;;;;;;1.52;0.90;;;;;;;;;;6320693;28;20285;-77
2023/06/01 03:39:01;;;;;;;4.45;0.98;;;;;;;;;;6360176;28;20339;-77
2023/06/01 03:42:07;;;;;;;0.80;0.80;;;;;;;;;;6342312;28;20300;-78
2023/06/01 03:45:13;;;;;;;1.40;0.95;;;;;;;;;;6358641;28;20301;-77
2023/06/01 03:48:19;;;;;;;0.80;0.80;;;;;;;;;;6341659;28;20301;-76
2023/06/01 03:51:26;;;;;;;4.40;0.82;;;;;;;;;;6341808;28;20297;-78
2023/06/01 03:54:31;;;;;;;0.90;0.90;;;;;;;;;;6341826;28;20616;-77
2023/06/01 03:57:37;;;;;;;1.33;0.80;;;;;;;;;;6359091;28;20328;-77
2023/06/01 04:00:43;;;;;;;3.20;0.90;;;;;;;;;;6342138;28;20292;-78
2023/06/01 04:03:50;;;;;;;4.07;0.90;;;;;;;;;;6341255;28;20286;-77
2023/06/01 04:07:00;;;;;;;2.55;1.00;;;;;;;;;;6308560;28;20286;-76
2023/06/01 04:10:07;;;;;;;2.75;0.75;;;;;;;;;;6307761;28;20594;-77
2023/06/01 04:13:12;;;;;;;4.50;0.98;;;;;;;;;;6308770;28;20290;-78
2023/06/01 04:16:17;;;;;;;1.05;1.00;;;;;;;;;;6308151;28;20302;-76
2023/06/01 04:19:23;;;;;;;3.80;1.02;;;;;;;;;;6307469;28;20407;-76
2023/06/01 04:22:37;;;;;;;0.70;0.70;;;;;;;;;;6307120;28;20274;-77
2023/06/01 04:25:45;;;;;;;1.85;0.80;;;;;;;;;;6306745;28;20441;-76
2023/06/01 04:28:51;;;;;;;3.17;1.00;;;;;;;;;;6307152;28;20294;-77
2023/06/01 04:31:56;;;;;;;1.40;0.90;;;;;;;;;;6307469;28;20302;-79
2023/06/01 04:35:04;;;;;;;2.50;1.10;;;;;;;;;;6307547;28;20298;-79
2023/06/01 04:38:13;;;;;;;1.02;0.93;;;;;;;;;;6339819;28;20408;-80
2023/06/01 04:41:21;;;;;;;0.98;0.80;;;;;;;;;;6307498;28;20303;-80
2023/06/01 04:44:27;;;;;;;3.90;1.00;;;;;;;;;;6308808;28;20476;-81
2023/06/01 04:47:32;;;;;;;2.05;0.90;;;;;;;;;;6309221;28;20293;-80
2023/06/01 04:50:38;;;;;;;1.20;1.20;;;;;;;;;;6307359;28;20603;-81
2023/06/01 04:53:44;;;;;;;4.38;1.23;;;;;;;;;;6307405;28;20301;-79
2023/06/01 04:56:51;;;;;;;2.50;0.93;;;;;;;;;;6309243;28;20302;-79
2023/06/01 04:59:57;;;;;;;1.00;1.00;;;;;;;;;;6307313;28;20306;-79
2023/06/01 05:03:02;;;;;;;1.00;1.00;;;;;;;;;;6307171;28;20583;-78
2023/06/01 05:06:08;;;;;;;2.95;0.98;;;;;;;;;;6307858;28;20290;-77
2023/06/01 05:09:15;;;;;;;3.35;1.10;;;;;;;;;;6306924;28;20302;-79
2023/06/01 05:12:20;;;;;;;0.95;0.95;;;;;;;;;;6312130;28;20287;-79
2023/06/01 05:15:28;;;;;;;2.45;1.08;;;;;;;;;;6307004;28;20439;-77
2023/06/01 05:18:36;;;;;;;1.38;0.95;;;;;;;;;;6307319;28;20302;-79
2023/06/01 05:21:44;;;;;;;1.63;1.20;;;;;;;;;;6308892;28;20611;-78
2023/06/01 05:24:51;;;;;;;1.17;1.00;;;;;;;;;;6307131;28;20298;-79
2023/06/01 05:27:57;;;;;;;2.38;1.08;;;;;;;;;;6307241;28;20578;-78
2023/06/01 05:31:03;;;;;;;2.75;1.17;;;;;;;;;;6307452;28;20294;-80
2023/06/01 05:34:13;;;;;;;7.60;1.10;;;;;;;;;;6306912;28;20476;-79
2023/06/01 05:37:19;;;;;;;2.70;0.88;;;;;;;;;;6307148;28;20322;-79
2023/06/01 05:40:26;;;;;;;1.85;1.02;;;;;;;;;;6307636;28;20382;-80
2023/06/01 05:43:31;;;;;;;1.02;1.02;;;;;;;;;;6310378;28;20290;-74
2023/06/01 05:46:39;;;;;;;28.17;2.85;;;;;;;;;;6295511;28;20270;-78
2023/06/01 05:49:45;;;;;;;1.75;1.00;;;;;;;;;;6311386;28;20302;-78
2023/06/01 05:52:50;;;;;;;4.82;1.10;;;;;;;;;;6311154;28;20309;-79
2023/06/01 05:55:57;;;;;;;2.10;1.02;;;;;;;;;;6312525;28;20286;-79
2023/06/01 05:59:02;;;;;;;5.35;1.10;;;;;;;;;;6311208;28;20290;-78
2023/06/01 06:02:08;;;;;;;2.83;1.05;;;;;;;;;;6319308;28;20296;-78
2023/06/01 06:05:13;;;;;;;1.20;1.00;;;;;;;;;;6363376;28;20293;-77
2023/06/01 06:08:19;;;;;;;1.10;1.10;;;;;;;;;;6362343;28;20281;-78
2023/06/01 06:11:25;;;;;;;2.40;1.10;;;;;;;;;;6359915;28;20300;-77
2023/06/01 06:14:31;;;;;;;3.13;1.10;;;;;;;;;;6362734;28;20293;-81
2023/06/01 06:17:36;;;;;;;1.88;0.98;;;;;;;;;;6362330;28;20573;-78
2023/06/01 06:20:42;;;;;;;2.05;1.00;;;;;;;;;;6362023;28;20299;-78
2023/06/01 06:23:47;;;;;;;1.02;1.02;;;;;;;;;;6361863;28;20289;-80
2023/06/01 06:26:54;;;;;;;1.85;1.08;;;;;;;;;;6362131;28;20298;-79
2023/06/01 06:29:59;;;;;;;3.72;1.35;;;;;;;;;;6361381;28;20297;-80
2023/06/01 06:33:04;;;;;;;1.38;1.38;;;;;;;;;;6362175;28;20298;-80
2023/06/01 06:36:14;;;;;;;5.57;1.20;;;;;;;;;;6364930;28;20297;-79
2023/06/01 06:39:19;;;;;;;5.45;0.90;;;;;;;;;;6361513;28;20474;-79
2023/06/01 06:42:27;;;;;;;1.60;1.10;;;;;;;;;;6361914;28;20285;-80
2023/06/01 06:45:33;;;;;;;2.10;1.20;;;;;;;;;;6362193;28;20309;-80
2023/06/01 06:48:38;;;;;;;0.90;0.90;;;;;;;;;;6361347;28;20483;-80
2023/06/01 06:51:43;;;;;;;2.75;1.13;;;;;;;;;;6360525;28;20292;-80
2023/06/01 06:54:48;;;;;;;1.40;1.33;;;;;;;;;;6361528;28;20346;-78
2023/06/01 06:57:55;;;;;;;1.50;1.38;;;;;;;;;;6361205;28;20292;-78
2023/06/01 07:01:04;;;;;;;2.17;1.00;;;;;;;;;;6361913;28;20368;-80
2023/06/01 07:04:12;;;;;;;1.30;1.20;;;;;;;;;;6360309;28;20494;-81
2023/06/01 07:07:17;;;;;;;1.17;1.08;;;;;;;;;;6362056;28;20285;-82
2023/06/01 07:10:22;;;;;;;3.85;1.20;;;;;;;;;;6358379;28;20285;-82
2023/06/01 07:13:29;;;;;;;6.72;1.00;;;;;;;;;;6360425;28;20301;-77
2023/06/01 07:16:34;;;;;;;5.53;1.25;;;;;;;;;;6361243;28;20454;-80
2023/06/01 07:19:43;;;;;;;2.45;0.90;;;;;;;;;;6360677;28;20573;-80
2023/06/01 07:22:49;;;;;;;1.27;1.27;;;;;;;;;;6360512;28;20538;-80
2023/06/01 07:25:55;;;;;;;3.28;1.20;;;;;;;;;;6361342;28;20293;-80
2023/06/01 07:29:03;;;;;;;4.70;1.42;;;;;;;;;;6359825;28;20304;-79
2023/06/01 07:32:10;;;;;;;3.50;0.77;;;;;;;;;;6360403;28;20289;-80
2023/06/01 07:35:15;;;;;;;1.25;1.25;;;;;;;;;;6360294;28;20584;-80
2023/06/01 07:38:21;;;;;;;1.30;1.20;;;;;;;;;;6360404;28;20285;-81
2023/06/01 07:41:27;;;;;;;5.97;1.55;;;;;;;;;;6360645;28;20320;-80
2023/06/01 07:44:34;;;;;;;2.83;1.02;;;;;;;;;;6359529;28;20289;-80
2023/06/01 07:47:39;;;;;;;1.38;1.38;;;;;;;;;;6360519;28;20293;-80
2023/06/01 07:50:44;;;;;;;1.67;1.10;;;;;;;;;;6359257;28;20292;-80
2023/06/01 07:53:49;;;;;;;4.18;1.20;;;;;;;;;;6359659;28;20281;-80
2023/06/01 07:56:56;;;;;;;3.58;1.20;;;;;;;;;;6360671;28;20296;-81
2023/06/01 08:00:04;;;;;;;1.65;1.40;;;;;;;;;;6359192;28;20297;-80
2023/06/01 08:03:13;;;;;;;1.33;1.23;;;;;;;;;;6359435;28;20577;-80
2023/06/01 08:06:23;;;;;;;2.67;1.20;;;;;;;;;;6359990;28;20292;-80
2023/06/01 08:09:28;;;;;;;1.38;1.35;;;;;;;;;;6359442;28;20294;-80
2023/06/01 08:12:33;;;;;;;1.40;1.20;;;;;;;;;;6335118;28;20290;-80
2023/06/01 08:15:42;;;;;;;2.55;1.77;;;;;;;;;;6334809;28;20289;-80
2023/06/01 08:18:47;;;;;;;1.88;1.23;;;;;;;;;;6332821;28;20293;-80
2023/06/01 08:21:52;;;;;;;1.08;1.08;;;;;;;;;;6334904;28;20309;-80
2023/06/01 08:24:59;;;;;;;1.50;1.50;;;;;;;;;;6333797;28;20298;-81
2023/06/01 08:28:05;;;;;;;6.32;1.30;;;;;;;;;;6334215;28;20297;-81
2023/06/01 08:31:14;;;;;;;1.80;1.70;;;;;;;;;;6334449;28;20304;-82
2023/06/01 08:34:20;;;;;;;2.50;1.58;;;;;;;;;;6333885;28;20514;-82
2023/06/01 08:37:25;;;;;;;1.35;1.30;;;;;;;;;;6334697;28;20286;-79
2023/06/01 08:40:31;;;;;;;1.90;1.30;;;;;;;;;;6332945;28;20306;-81
2023/06/01 08:43:39;;;;;;;1.83;1.73;;;;;;;;;;6334454;28;20285;-79
2023/06/01 08:46:45;;;;;;;3.65;1.40;;;;;;;;;;6334661;28;20550;-80
2023/06/01 08:49:51;;;;;;;5.28;1.35;;;;;;;;;;6333930;28;20285;-81
2023/06/01 08:52:58;;;;;;;4.68;1.25;;;;;;;;;;6333747;28;20293;-82
2023/06/01 08:56:04;;;;;;;1.50;1.48;;;;;;;;;;6333959;28;20297;-80
2023/06/01 08:59:10;;;;;;;1.10;1.10;;;;;;;;;;6333555;28;20290;-82
2023/06/01 09:02:17;;;;;;;4.20;1.30;;;;;;;;;;6333272;28;20305;-82
2023/06/01 09:05:22;;;;;;;1.30;1.30;;;;;;;;;;6333777;28;20293;-82
2023/06/01 09:08:27;;;;;;;5.10;1.30;;;;;;;;;;6333374;28;20467;-77
2023/06/01 09:11:33;;;;;;;1.45;1.05;;;;;;;;;;6337352;28;20293;-79
2023/06/01 09:14:38;;;;;;;1.30;1.20;;;;;;;;;;6333232;28;20449;-80
2023/06/01 09:17:46;;;;;;;2.70;1.17;;;;;;;;;;6357048;28;20285;-82
2023/06/01 09:20:53;;;;;;;6.93;1.13;;;;;;;;;;6363994;27;20293;-80
2023/06/01 09:24:19;;;;;;;1.98;1.35;;;;;;;;;;6363469;28;20289;-80
2023/06/01 09:27:25;;;;;;;1.88;1.50;;;;;;;;;;6363983;28;20288;-83
2023/06/01 09:30:40;;;;;;;4.40;1.50;;;;;;;;;;6363216;27;20602;-79
2023/06/01 09:34:01;;;;;;;1.30;1.30;;;;;;;;;;6363469;28;20289;-79
2023/06/01 09:37:08;;;;;;;3.33;1.30;;;;;;;;;;6364034;28;20285;-80
2023/06/01 09:40:22;;;;;;;3.15;1.20;;;;;;;;;;6363786;28;20327;-80
2023/06/01 09:43:27;;;;;;;2.15;1.10;;;;;;;;;;6366645;28;20296;-80
2023/06/01 09:46:32;;;;;;;7.95;1.40;;;;;;;;;;6364006;28;20275;-80
2023/06/01 09:49:40;;;;;;;1.27;1.17;;;;;;;;;;6362953;28;20301;-80
2023/06/01 09:52:59;;;;;;;1.05;1.00;;;;;;;;;;6362419;27;20288;-82
2023/06/01 09:56:05;;;;;;;1.52;1.45;;;;;;;;;;6363373;28;20629;-81
2023/06/01 09:59:14;;;;;;;1.10;1.10;;;;;;;;;;6363295;27;20288;-80
2023/06/01 10:02:20;;;;;;;1.95;1.23;;;;;;;;;;6362943;28;20392;-80
2023/06/01 10:05:27;;;;;;;3.63;1.48;;;;;;;;;;6363296;28;20323;-82
2023/06/01 10:08:33;;;;;;;4.93;1.48;;;;;;;;;;6362338;27;20559;-81
2023/06/01 10:11:38;;;;;;;1.83;1.30;;;;;;;;;;6360729;28;20390;-81
2023/06/01 10:14:43;;;;;;;1.23;1.23;;;;;;;;;;6362298;28;20301;-80
2023/06/01 10:17:51;;;;;;;4.53;1.15;;;;;;;;;;6366397;28;20280;-81
2023/06/01 10:20:58;;;;;;;2.05;1.40;;;;;;;;;;6347072;28;20298;-80
2023/06/01 10:24:03;;;;;;;1.75;1.33;;;;;;;;;;6363698;28;20296;-81
2023/06/01 10:27:20;;;;;;;3.70;1.60;;;;;;;;;;6362294;28;20301;-81
2023/06/01 10:30:25;;;;;;;2.92;1.33;;;;;;;;;;6362427;28;20301;-76
2023/06/01 10:33:56;;;;;;;2.78;1.25;;;;;;;;;;6360395;28;20280;-81
2023/06/01 10:37:19;;;;;;;1.33;1.27;;;;;;;;;;6347191;28;20308;-82
2023/06/01 10:40:26;;;;;;;1.33;1.23;;;;;;;;;;6363481;28;20297;-81
2023/06/01 10:43:43;;;;;;;2.13;1.30;;;;;;;;;;6361072;28;20289;-81
2023/06/01 10:46:49;;;;;;;1.98;1.88;;;;;;;;;;6362812;28;20355;-80
2023/06/01 10:50:11;;;;;;;1.17;1.17;;;;;;;;;;6362146;28;20297;-81
2023/06/01 10:53:28;;;;;;;5.28;1.30;;;;;;;;;;6361708;28;20309;-80
2023/06/01 10:56:33;;;;;;;1.25;1.20;;;;;;;;;;6361840;28;20284;-80
2023/06/01 10:59:39;;;;;;;1.80;1.20;;;;;;;;;;6361848;28;20471;-79
2023/06/01 11:02:49;;;;;;;2.25;1.05;;;;;;;;;;6361849;28;20596;-81
2023/06/01 11:05:54;;;;;;;2.30;1.40;;;;;;;;;;6362686;28;20446;-79
2023/06/01 11:09:05;;;;;;;1.23;1.23;;;;;;;;;;6361973;28;20297;-80
2023/06/01 11:12:12;;;;;;;1.95;1.30;;;;;;;;;;6360082;28;20380;-80
2023/06/01 11:15:18;;;;;;;1.77;1.67;;;;;;;;;;6362795;28;20592;-81
2023/06/01 11:18:44;;;;;;;2.05;1.25;;;;;;;;;;6365422;28;20462;-81
2023/06/01 11:21:51;;;;;;;1.45;1.38;;;;;;;;;;6365647;28;20292;-82
2023/06/01 11:25:00;;;;;;;1.25;1.23;;;;;;;;;;6344892;28;20297;-82
2023/06/01 11:28:06;;;;;;;1.20;1.20;;;;;;;;;;6363687;28;20301;-79
2023/06/01 11:31:13;;;;;;;5.63;1.20;;;;;;;;;;6363285;28;20316;-80
2023/06/01 11:34:19;;;;;;;1.30;1.20;;;;;;;;;;6362388;28;20293;-79
2023/06/01 11:37:26;;;;;;;3.03;1.40;;;;;;;;;;6361482;28;20289;-80
2023/06/01 11:40:32;;;;;;;4.85;1.33;;;;;;;;;;6359668;28;20451;-81
2023/06/01 11:43:43;;;;;;;1.20;1.15;;;;;;;;;;6343085;28;20289;-80
2023/06/01 11:46:53;;;;;;;2.03;1.30;;;;;;;;;;6361707;28;20288;-80
2023/06/01 11:49:58;;;;;;;1.30;1.20;;;;;;;;;;6360971;28;20302;-80
2023/06/01 11:53:04;;;;;;;1.30;1.30;;;;;;;;;;6360807;28;20281;-79
2023/06/01 11:56:13;;;;;;;1.27;1.20;;;;;;;;;;6361286;28;20293;-79
2023/06/01 11:59:18;;;;;;;4.30;1.30;;;;;;;;;;6360708;28;20596;-79
2023/06/01 12:02:26;;;;;;;1.25;1.17;;;;;;;;;;6361754;28;20304;-79
2023/06/01 12:05:41;;;;;;;3.33;1.38;;;;;;;;;;6360169;28;20297;-80
2023/06/01 12:08:47;;;;;;;1.38;1.27;;;;;;;;;;6359873;28;20297;-80
2023/06/01 12:11:55;;;;;;;1.85;1.20;;;;;;;;;;6357312;28;20301;-79
2023/06/01 12:15:00;;;;;;;4.15;1.20;;;;;;;;;;6360155;28;20292;-79
2023/06/01 12:18:06;;;;;;;1.00;1.00;;;;;;;;;;6359677;28;20301;-79
2023/06/01 12:21:13;;;;;;;2.60;1.25;;;;;;;;;;6360003;28;20290;-81
2023/06/01 12:24:18;;;;;;;1.20;1.20;;;;;;;;;;6360131;28;20325;-79
2023/06/01 12:27:25;;;;;;;1.75;1.30;;;;;;;;;;6361557;28;20294;-80
2023/06/01 12:30:30;;;;;;;6.85;0.98;;;;;;;;;;6358928;28;20289;-80
2023/06/01 12:33:37;;;;;;;1.05;1.05;;;;;;;;;;6341031;28;20293;-79
2023/06/01 12:36:42;;;;;;;4.72;1.20;;;;;;;;;;6358576;28;20297;-81
2023/06/01 12:39:53;;;;;;;1.20;1.20;;;;;;;;;;6340626;28;20293;-79
2023/06/01 12:43:01;;;;;;;0.90;0.88;;;;;;;;;;6358820;28;20297;-80
2023/06/01 12:46:06;;;;;;;1.10;1.00;;;;;;;;;;6341713;28;20380;-80
2023/06/01 12:49:16;;;;;;;2.67;1.00;;;;;;;;;;6359076;28;20301;-80
2023/06/01 12:52:21;;;;;;;1.05;1.00;;;;;;;;;;6359257;28;20289;-80
2023/06/01 12:55:27;;;;;;;1.38;1.27;;;;;;;;;;6359131;28;20315;-80
2023/06/01 12:58:33;;;;;;;3.67;1.33;;;;;;;;;;6357935;28;20285;-80
2023/06/01 13:01:38;;;;;;;2.97;1.10;;;;;;;;;;6359052;28;20265;-79
2023/06/01 13:04:45;;;;;;;1.10;1.00;;;;;;;;;;6358755;28;20296;-80
2023/06/01 13:07:50;;;;;;;1.13;1.13;;;;;;;;;;6358554;28;20297;-79
2023/06/01 13:10:56;;;;;;;2.90;1.15;;;;;;;;;;6356391;28;20280;-80
2023/06/01 13:14:02;;;;;;;1.27;1.10;;;;;;;;;;6358787;28;20292;-79
2023/06/01 13:17:09;;;;;;;1.27;1.00;;;;;;;;;;6358969;28;20289;-79
2023/06/01 13:20:16;;;;;;;1.27;1.20;;;;;;;;;;6340240;28;20292;-79
2023/06/01 13:23:21;;;;;;;2.88;1.23;;;;;;;;;;6358570;28;20297;-79
2023/06/01 13:26:26;;;;;;;2.33;0.90;;;;;;;;;;6358904;28;20376;-79
2023/06/01 13:29:33;;;;;;;0.95;0.95;;;;;;;;;;6358224;28;20301;-80
2023/06/01 13:32:38;;;;;;;2.63;1.10;;;;;;;;;;6359409;28;20309;-79
2023/06/01 13:35:44;;;;;;;1.02;1.02;;;;;;;;;;6357836;28;20373;-79
2023/06/01 13:38:49;;;;;;;4.20;1.10;;;;;;;;;;6358655;28;20308;-80
2023/06/01 13:41:55;;;;;;;1.20;1.02;;;;;;;;;;6358958;28;20308;-80
2023/06/01 13:45:01;;;;;;;0.98;0.98;;;;;;;;;;6358294;28;20293;-80
2023/06/01 13:48:07;;;;;;;1.00;0.93;;;;;;;;;;6340335;28;20297;-78
2023/06/01 13:51:12;;;;;;;1.55;1.17;;;;;;;;;;6359129;28;20289;-80
2023/06/01 13:54:18;;;;;;;2.92;1.30;;;;;;;;;;6358555;28;20293;-80
2023/06/01 13:57:23;;;;;;;1.15;1.15;;;;;;;;;;6358992;28;20289;-80
2023/06/01 14:00:30;;;;;;;3.35;1.23;;;;;;;;;;6357506;28;20308;-80
2023/06/01 14:03:35;;;;;;;0.93;0.93;;;;;;;;;;6319448;28;20290;-80
2023/06/01 14:06:41;;;;;;;2.70;0.98;;;;;;;;;;6312638;28;20295;-80
2023/06/01 14:09:46;;;;;;;1.95;1.00;;;;;;;;;;6314149;28;20628;-82
2023/06/01 14:12:51;;;;;;;3.30;1.00;;;;;;;;;;6312466;28;20321;-81
2023/06/01 14:15:58;;;;;;;1.00;1.00;;;;;;;;;;6312973;28;20294;-81
2023/06/01 14:19:03;;;;;;;1.00;1.00;;;;;;;;;;6312229;28;20290;-82
2023/06/01 14:22:08;;;;;;;2.20;1.02;;;;;;;;;;6312752;28;20294;-80
2023/06/01 14:25:14;;;;;;;2.15;1.00;;;;;;;;;;6312213;28;20302;-81
2023/06/01 14:28:19;;;;;;;1.70;1.13;;;;;;;;;;6312334;28;20286;-82
2023/06/01 14:31:26;;;;;;;3.88;1.10;;;;;;;;;;6312984;28;20582;-79
2023/06/01 14:34:31;;;;;;;2.60;1.10;;;;;;;;;;6311488;28;20319;-80
2023/06/01 14:37:37;;;;;;;0.90;0.90;;;;;;;;;;6313868;28;20266;-80
2023/06/01 14:40:53;;;;;;;0.75;0.75;;;;;;;;;;6312381;28;20281;-80
2023/06/01 14:43:59;;;;;;;1.00;1.00;;;;;;;;;;6312656;28;20295;-78
2023/06/01 14:47:06;;;;;;;1.40;0.90;;;;;;;;;;6312825;28;20298;-80
2023/06/01 14:50:12;;;;;;;1.20;1.10;;;;;;;;;;6311785;28;20483;-80
2023/06/01 14:53:17;;;;;;;3.85;1.00;;;;;;;;;;6311780;28;20301;-80
2023/06/01 14:56:23;;;;;;;0.85;0.85;;;;;;;;;;6311934;28;20294;-77
2023/06/01 14:59:28;;;;;;;2.33;1.00;;;;;;;;;;6311479;28;20290;-77
2023/06/01 15:02:34;;;;;;;0.98;0.98;;;;;;;;;;6328127;28;20292;-80
2023/06/01 15:05:40;;;;;;;2.10;0.90;;;;;;;;;;6362064;28;20292;-79
2023/06/01 15:08:45;;;;;;;1.20;1.20;;;;;;;;;;6361594;28;20289;-78
2023/06/01 15:11:50;;;;;;;2.40;1.30;;;;;;;;;;6358933;28;20288;-79
2023/06/01 15:14:55;;;;;;;3.10;1.20;;;;;;;;;;6360701;28;20320;-80
2023/06/01 15:18:02;;;;;;;2.75;1.10;;;;;;;;;;6362044;28;20297;-81
2023/06/01 15:21:07;;;;;;;2.10;2.00;;;;;;;;;;6362326;28;20289;-81
2023/06/01 15:24:13;;;;;;;25.23;13.27;;;;;;;;;;6361283;28;20586;-80
2023/06/01 15:27:19;;;;;;;25.63;15.77;;;;;;;;;;6360619;28;20583;-83
2023/06/01 15:30:25;;;;;;;376.27;167.38;;;;;;;;;;6361346;28;20296;-81
2023/06/01 15:33:32;;;;;;;26.25;15.30;;;;;;;;;;6361376;28;20456;-81
2023/06/01 15:36:37;;;;;;;6.63;4.07;;;;;;;;;;6361597;28;20290;-81
2023/06/01 15:39:42;;;;;;;1.92;1.30;;;;;;;;;;6360842;28;20309;-82
2023/06/01 15:42:48;;;;;;;2.10;1.63;;;;;;;;;;6360030;28;20285;-83
2023/06/01 15:45:53;;;;;;;2.15;1.58;;;;;;;;;;6361144;28;20585;-81
2023/06/01 15:49:01;;;;;;;1.05;1.00;;;;;;;;;;6360109;28;20285;-81
2023/06/01 15:52:07;;;;;;;0.90;0.90;;;;;;;;;;6361190;28;20586;-80
2023/06/01 15:55:12;;;;;;;4.88;1.05;;;;;;;;;;6361130;28;20492;-81
2023/06/01 15:58:17;;;;;;;2.10;1.50;;;;;;;;;;6360360;28;20293;-80
2023/06/01 16:01:23;;;;;;;2.17;1.67;;;;;;;;;;6361098;28;20300;-80
2023/06/01 16:04:34;;;;;;;3.50;0.95;;;;;;;;;;6359870;28;20314;-80
2023/06/01 16:07:40;;;;;;;0.80;0.80;;;;;;;;;;6361521;28;20265;-80
2023/06/01 16:10:46;;;;;;;4.47;1.20;;;;;;;;;;6352982;28;20274;-81
2023/06/01 16:13:51;;;;;;;8.98;1.30;;;;;;;;;;6334349;28;20292;-79
2023/06/01 16:16:56;;;;;;;2.28;1.20;;;;;;;;;;6330832;28;20483;-80
2023/06/01 16:20:03;;;;;;;1.13;1.02;;;;;;;;;;6356669;28;20289;-80
2023/06/01 16:23:09;;;;;;;1.85;1.42;;;;;;;;;;6363690;28;20285;-81
2023/06/01 16:26:14;;;;;;;1.10;1.10;;;;;;;;;;6332611;28;20298;-81
2023/06/01 16:29:20;;;;;;;3.05;1.35;;;;;;;;;;6349355;28;20293;-81
2023/06/01 16:32:26;;;;;;;10.23;1.50;;;;;;;;;;6357602;28;20282;-81
2023/06/01 16:35:33;;;;;;;1.80;1.17;;;;;;;;;;6335260;28;20297;-81
2023/06/01 16:38:38;;;;;;;5.55;1.70;;;;;;;;;;6332307;28;20618;-81
2023/06/01 16:41:44;;;;;;;1.63;1.50;;;;;;;;;;6341621;28;20574;-80
2023/06/01 16:44:49;;;;;;;3.00;1.98;;;;;;;;;;6359320;28;20297;-82
2023/06/01 16:47:59;;;;;;;1.33;1.30;;;;;;;;;;6359139;28;20293;-81
2023/06/01 16:51:06;;;;;;;2.63;1.40;;;;;;;;;;6359847;28;20314;-79
2023/06/01 16:54:12;;;;;;;1.90;1.48;;;;;;;;;;6359224;28;20293;-80
2023/06/01 16:57:17;;;;;;;1.80;1.70;;;;;;;;;;6359298;28;20304;-81
2023/06/01 17:00:24;;;;;;;1.60;1.60;;;;;;;;;;6335180;28;20285;-80
2023/06/01 17:03:29;;;;;;;1.33;1.20;;;;;;;;;;6333502;28;20461;-81
2023/06/01 17:06:38;;;;;;;1.83;1.48;;;;;;;;;;6334478;28;20325;-80
2023/06/01 17:09:43;;;;;;;1.75;1.30;;;;;;;;;;6335394;28;20294;-81
2023/06/01 17:12:49;;;;;;;2.33;1.20;;;;;;;;;;6358734;28;20297;-80
2023/06/01 17:15:54;;;;;;;1.23;1.23;;;;;;;;;;6359782;28;20294;-81
2023/06/01 17:19:00;;;;;;;1.30;1.30;;;;;;;;;;6358926;28;20289;-81
2023/06/01 17:22:07;;;;;;;1.55;1.45;;;;;;;;;;6359651;28;20285;-78
2023/06/01 17:25:12;;;;;;;2.15;1.23;;;;;;;;;;6359079;28;20292;-82
2023/06/01 17:28:17;;;;;;;7.13;1.48;;;;;;;;;;6358786;28;20297;-82
2023/06/01 17:31:22;;;;;;;3.72;1.52;;;;;;;;;;6358952;28;20298;-80
2023/06/01 17:34:28;;;;;;;2.15;1.10;;;;;;;;;;6335779;28;20289;-82
2023/06/01 17:37:34;;;;;;;2.30;1.40;;;;;;;;;;6340390;28;20294;-80
2023/06/01 17:40:40;;;;;;;1.63;1.40;;;;;;;;;;6338649;28;20301;-80
2023/06/01 17:43:45;;;;;;;1.40;1.20;;;;;;;;;;6338702;28;20289;-79
2023/06/01 17:46:50;;;;;;;1.55;1.17;;;;;;;;;;6340764;28;20290;-80
2023/06/01 17:49:55;;;;;;;4.53;1.15;;;;;;;;;;6340988;28;20605;-80
2023/06/01 17:53:02;;;;;;;5.82;1.23;;;;;;;;;;6339456;28;20289;-79
2023/06/01 17:56:09;;;;;;;1.20;1.20;;;;;;;;;;6337596;28;20294;-77
2023/06/01 17:59:15;;;;;;;2.25;1.42;;;;;;;;;;6337566;28;20595;-78
2023/06/01 18:02:20;;;;;;;3.50;1.40;;;;;;;;;;6336275;28;20333;-77
2023/06/01 18:05:26;;;;;;;3.08;2.00;;;;;;;;;;6336247;28;20285;-77
2023/06/01 18:08:32;;;;;;;2.08;1.45;;;;;;;;;;6335677;28;20291;-78
2023/06/01 18:11:37;;;;;;;2.05;1.50;;;;;;;;;;6352760;28;20449;-78
2023/06/01 18:14:43;;;;;;;3.13;1.60;;;;;;;;;;6360977;28;20313;-78
2023/06/01 18:17:48;;;;;;;3.15;1.15;;;;;;;;;;6360781;28;20273;-78
2023/06/01 18:20:53;;;;;;;1.58;1.15;;;;;;;;;;6361863;28;20264;-79
2023/06/01 18:24:00;;;;;;;4.18;1.52;;;;;;;;;;6360908;28;20469;-78
2023/06/01 18:27:06;;;;;;;10.40;1.45;;;;;;;;;;6361364;28;20292;-80
2023/06/01 18:30:13;;;;;;;1.52;1.40;;;;;;;;;;6360871;28;20292;-79
2023/06/01 18:33:18;;;;;;;6.10;1.20;;;;;;;;;;6348047;28;20290;-76
2023/06/01 18:36:23;;;;;;;1.58;1.42;;;;;;;;;;6336153;28;20290;-79
2023/06/01 18:39:30;;;;;;;1.65;1.10;;;;;;;;;;6336148;28;20310;-78
2023/06/01 18:42:36;;;;;;;8.50;1.80;;;;;;;;;;6338060;28;20598;-78